createdAt,value
2023-03-26T00:01:51.741Z,98208.69
2023-03-26T00:04:21.908Z,98204.22
2023-03-26T00:06:50.437Z,98198.03
2023-03-26T00:09:18.898Z,98200.78
2023-03-26T00:11:46.827Z,98200.91
2023-03-26T00:14:17.755Z,98197.47
2023-03-26T07:40:04.509Z,97483.69
2023-03-26T07:42:59.553Z,97492.03
2023-03-26T07:45:42.675Z,97479.97
2023-03-26T07:48:27.395Z,97478.50
2023-03-26T07:50:57.278Z,97469.97
2023-03-26T07:53:25.398Z,97472.72
2023-03-26T07:56:26.391Z,97464.84
2023-03-26T07:59:40.120Z,97479.84
2023-03-26T08:03:19.085Z,97476.72
2023-03-26T08:06:19.491Z,97484.19
2023-03-26T08:09:11.769Z,97498.75
2023-03-26T08:11:58.863Z,97511.75
2023-03-26T08:15:12.323Z,97519.59
2023-03-26T08:18:19.840Z,97536.69
2023-03-26T08:21:00.479Z,97526.03
2023-03-26T08:24:03.560Z,97535.75
2023-03-26T08:27:27.781Z,97544.09
2023-03-26T08:30:22.436Z,97533.63
2023-03-26T08:33:20.695Z,97532.03
2023-03-26T08:35:49.500Z,97541.44
2023-03-26T08:38:21.181Z,97533.69
2023-03-26T08:41:12.585Z,97531.66
2023-03-26T08:44:36.970Z,97538.09
2023-03-26T08:48:38.788Z,97549.09
2023-03-26T08:51:49.363Z,97537.00
2023-03-26T08:55:40.008Z,97525.94
2023-03-26T08:59:44.890Z,97542.53
2023-03-26T09:03:03.204Z,97554.38
2023-03-26T09:06:20.941Z,97544.50
2023-03-26T09:09:37.393Z,97548.06
2023-03-26T09:12:54.460Z,97546.50
2023-03-26T09:16:38.855Z,97551.25
2023-03-26T09:19:26.564Z,97548.50
2023-03-26T09:22:48.515Z,97567.88
2023-03-26T09:25:53.896Z,97561.91
2023-03-26T09:28:50.380Z,97550.84
2023-03-26T09:32:09.612Z,97561.84
2023-03-26T09:35:45.597Z,97548.09
2023-03-26T09:39:14.342Z,97559.06
2023-03-26T09:42:23.109Z,97543.91
2023-03-26T09:45:27.318Z,97559.09
2023-03-26T09:48:47.523Z,97540.88
2023-03-26T09:52:45.492Z,97544.44
2023-03-26T09:55:52.849Z,97544.13
2023-03-26T09:59:15.591Z,97535.94
2023-03-26T10:02:45.808Z,97530.88
2023-03-26T10:06:28.094Z,97522.56
2023-03-26T10:09:24.719Z,97523.75
2023-03-26T10:12:46.260Z,97518.94
2023-03-26T10:16:10.528Z,97551.19
2023-03-26T10:19:13.445Z,97540.34
2023-03-26T10:22:30.665Z,97544.00
2023-03-26T10:26:04.495Z,97529.88
2023-03-26T10:29:21.336Z,97534.09
2023-03-26T10:32:27.723Z,97523.13
2023-03-26T10:35:39.698Z,97509.16
2023-03-26T10:39:09.454Z,97533.03
2023-03-26T10:42:40.852Z,97515.06
2023-03-26T10:46:04.315Z,97516.94
2023-03-26T10:49:29.989Z,97521.88
2023-03-26T10:52:13.048Z,97512.72
2023-03-26T10:55:03.808Z,97513.81
2023-03-26T10:58:17.547Z,97510.38
2023-03-26T11:01:44.906Z,97513.66
2023-03-26T11:05:12.017Z,97520.91
2023-03-26T11:08:04.917Z,97519.00
2023-03-26T11:11:14.299Z,97518.03
2023-03-26T11:13:54.126Z,97513.16
2023-03-26T11:17:41.000Z,97518.19
2023-03-26T11:20:30.851Z,97520.41
2023-03-26T11:23:42.734Z,97524.75
2023-03-26T11:26:49.082Z,97509.28
2023-03-26T11:30:15.849Z,97500.31
2023-03-26T11:33:02.378Z,97503.75
2023-03-26T11:35:41.867Z,97500.13
2023-03-26T11:38:45.032Z,97513.72
2023-03-26T11:41:27.331Z,97497.94
2023-03-26T11:44:27.343Z,97488.75
2023-03-26T11:47:10.221Z,97482.78
2023-03-26T11:49:39.158Z,97481.31
2023-03-26T11:52:07.734Z,97476.00
2023-03-26T11:54:35.184Z,97477.56
2023-03-26T11:57:18.596Z,97481.78
2023-03-26T12:00:08.136Z,97470.72
2023-03-26T12:02:41.616Z,97465.84
2023-03-26T12:05:25.044Z,97454.03
2023-03-26T12:08:20.371Z,97456.38
2023-03-26T12:11:03.855Z,97439.16
2023-03-26T12:14:00.418Z,97441.59
2023-03-26T12:16:29.992Z,97455.38
2023-03-26T12:19:18.916Z,97470.84
2023-03-26T12:21:53.030Z,97458.34
2023-03-26T12:24:35.071Z,97471.81
2023-03-26T12:27:28.477Z,97483.84
2023-03-26T12:30:28.952Z,97467.09
2023-03-26T12:33:18.280Z,97455.16
2023-03-26T12:35:45.975Z,97446.38
2023-03-26T12:38:35.677Z,97438.63
2023-03-26T12:43:51.567Z,97423.03
2023-03-26T12:44:50.059Z,97435.59
2023-03-26T12:47:57.522Z,97442.88
2023-03-26T12:50:34.698Z,97449.97
2023-03-26T12:54:03.247Z,97447.16
2023-03-26T12:57:30.877Z,97458.31
2023-03-26T13:00:25.317Z,97424.13
2023-03-26T13:04:08.438Z,97416.44
2023-03-26T13:07:01.746Z,97408.19
2023-03-26T13:10:01.634Z,97390.63
2023-03-26T13:13:21.737Z,97391.56
2023-03-26T13:15:56.675Z,97377.06
2023-03-26T13:19:14.334Z,97361.63
2023-03-26T13:22:47.362Z,97353.97
2023-03-26T13:25:49.248Z,97353.13
2023-03-26T13:28:57.140Z,97350.16
2023-03-26T13:31:54.306Z,97359.56
2023-03-26T13:36:14.391Z,97397.88
2023-03-26T13:39:53.898Z,97453.06
2023-03-26T13:43:05.376Z,97522.84
2023-03-26T13:46:42.969Z,97548.69
2023-03-26T13:49:29.394Z,97555.53
2023-03-26T13:52:30.733Z,97546.94
2023-03-26T13:55:50.527Z,97537.94
2023-03-26T13:58:50.668Z,97517.63
2023-03-26T14:01:41.323Z,97536.69
2023-03-26T14:04:37.096Z,97533.25
2023-03-26T14:07:27.524Z,97525.13
2023-03-26T14:10:13.256Z,97533.78
2023-03-26T14:13:19.660Z,97546.84
2023-03-26T14:16:12.918Z,97542.94
2023-03-26T14:19:18.315Z,97529.41
2023-03-26T14:22:32.031Z,97538.53
2023-03-26T14:25:57.844Z,97532.19
2023-03-26T14:29:38.063Z,97541.81
2023-03-26T14:33:12.364Z,97547.00
2023-03-26T14:36:13.611Z,97547.66
2023-03-26T14:39:30.533Z,97555.97
2023-03-26T14:42:24.677Z,97566.63
2023-03-26T14:46:01.977Z,97575.66
2023-03-26T14:49:11.459Z,97584.31
2023-03-26T14:52:30.539Z,97581.41
2023-03-26T14:55:10.729Z,97605.16
2023-03-26T14:58:39.640Z,97625.28
2023-03-26T15:02:12.891Z,97603.91
2023-03-26T15:05:07.449Z,97619.94
2023-03-26T15:09:06.847Z,97610.44
2023-03-26T15:12:33.513Z,97617.66
2023-03-26T15:16:17.499Z,97660.03
2023-03-26T15:19:23.911Z,97664.91
2023-03-26T15:22:25.999Z,97630.81
2023-03-26T15:26:23.509Z,97610.69
2023-03-26T15:30:02.881Z,97557.91
2023-03-26T15:32:58.284Z,97549.41
2023-03-26T15:36:53.332Z,97573.97
2023-03-26T15:40:09.740Z,97570.31
2023-03-26T15:43:01.752Z,97575.22
2023-03-26T15:45:43.759Z,97571.16
2023-03-26T15:48:11.924Z,97567.75
2023-03-26T15:51:46.175Z,97565.75
2023-03-26T15:55:04.296Z,97580.13
2023-03-26T15:58:05.471Z,97577.91
2023-03-26T16:00:43.897Z,97580.00
2023-03-26T16:03:38.360Z,97583.78
2023-03-26T16:06:31.390Z,97573.22
2023-03-26T16:09:40.604Z,97573.94
2023-03-26T16:12:16.958Z,97584.31
2023-03-26T16:15:32.350Z,97590.66
2023-03-26T16:18:12.402Z,97585.47
2023-03-26T16:21:34.662Z,97597.03
2023-03-26T16:24:08.255Z,97597.00
2023-03-26T16:26:44.669Z,97594.16
2023-03-26T16:29:18.312Z,97604.94
2023-03-26T16:32:10.401Z,97616.75
2023-03-26T16:35:10.118Z,97613.59
2023-03-26T16:38:06.033Z,97617.59
2023-03-26T16:40:49.157Z,97619.16
2023-03-26T16:44:10.808Z,97627.84
2023-03-26T16:47:46.003Z,97636.53
2023-03-26T16:50:43.805Z,97635.72
2023-03-26T16:53:43.562Z,97612.81
2023-03-26T16:56:42.774Z,97621.47
2023-03-26T17:00:16.552Z,97617.59
2023-03-26T17:02:59.948Z,97610.03
2023-03-26T17:05:56.748Z,97614.38
2023-03-26T17:09:21.157Z,97606.47
2023-03-26T17:12:32.959Z,97610.72
2023-03-26T17:16:16.364Z,97601.72
2023-03-26T17:19:18.709Z,97597.81
2023-03-26T17:22:26.773Z,97595.41
2023-03-26T17:26:04.081Z,97593.84
2023-03-26T17:28:54.140Z,97587.84
2023-03-26T17:32:15.163Z,97583.59
2023-03-26T17:34:50.578Z,97575.66
2023-03-26T17:37:39.213Z,97584.59
2023-03-26T17:40:51.741Z,97577.94
2023-03-26T17:43:50.766Z,97581.56
2023-03-26T17:46:42.868Z,97568.13
2023-03-26T17:49:18.066Z,97573.28
2023-03-26T17:52:17.031Z,97566.09
2023-03-26T17:54:48.046Z,97554.72
2023-03-26T17:57:47.658Z,97558.22
2023-03-26T18:00:41.841Z,97551.88
2023-03-26T18:03:44.157Z,97546.44
2023-03-26T18:06:35.971Z,97547.56
2023-03-26T18:10:09.945Z,97547.13
2023-03-26T18:13:17.668Z,97540.72
2023-03-26T18:16:18.002Z,97538.44
2023-03-26T18:19:17.718Z,97540.69
2023-03-26T18:21:56.885Z,97543.50
2023-03-26T18:24:40.649Z,97551.50
2023-03-26T18:27:19.256Z,97549.94
2023-03-26T18:30:14.414Z,97552.72
2023-03-26T18:33:15.887Z,97556.63
2023-03-26T18:35:55.667Z,97556.16
2023-03-26T18:38:35.489Z,97553.50
2023-03-26T18:41:39.343Z,97561.41
2023-03-26T18:44:18.824Z,97565.28
2023-03-26T18:46:46.858Z,97558.63
2023-03-26T18:49:16.904Z,97542.03
2023-03-26T18:51:55.959Z,97543.28
2023-03-26T18:54:30.025Z,97529.78
2023-03-26T18:56:58.988Z,97549.97
2023-03-26T18:59:35.250Z,97552.25
2023-03-26T19:02:16.563Z,97562.91
2023-03-26T19:04:47.254Z,97569.75
2023-03-26T19:07:26.691Z,97587.59
2023-03-26T19:09:56.633Z,97585.88
2023-03-26T19:12:36.170Z,97604.03
2023-03-26T19:15:16.843Z,97598.94
2023-03-26T19:17:53.528Z,97615.13
2023-03-26T19:20:33.017Z,97600.97
2023-03-26T19:23:00.755Z,97591.63
2023-03-26T19:25:56.561Z,97604.59
2023-03-26T19:28:37.885Z,97604.97
2023-03-26T19:31:50.557Z,97597.72
2023-03-26T19:34:39.290Z,97588.81
2023-03-26T19:37:32.519Z,97575.81
2023-03-26T19:40:21.463Z,97577.78
2023-03-26T19:42:50.805Z,97567.00
2023-03-26T19:45:23.692Z,97554.25
2023-03-26T19:48:03.553Z,97562.97
2023-03-26T19:50:43.379Z,97564.13
2023-03-26T19:53:25.580Z,97556.97
2023-03-26T19:56:15.391Z,97573.34
2023-03-26T19:58:43.580Z,97560.13
2023-03-26T20:01:24.840Z,97567.50
2023-03-26T20:04:01.993Z,97554.19
2023-03-26T20:06:41.673Z,97557.91
2023-03-26T20:09:13.429Z,97557.09
2023-03-26T20:11:41.571Z,97566.81
2023-03-26T20:14:25.925Z,97558.44
2023-03-26T20:16:53.944Z,97564.97
2023-03-26T20:19:21.499Z,97579.91
2023-03-26T20:21:49.079Z,97566.75
2023-03-26T20:24:19.507Z,97573.25
2023-03-26T20:26:47.874Z,97582.69
2023-03-26T20:29:16.856Z,97583.97
2023-03-26T20:31:49.828Z,97584.88
2023-03-26T20:34:24.514Z,97579.13
2023-03-26T20:36:56.146Z,97588.63
2023-03-26T20:39:24.910Z,97587.94
2023-03-26T20:41:56.342Z,97588.78
2023-03-26T20:44:26.809Z,97603.00
2023-03-26T20:46:56.589Z,97605.53
2023-03-26T20:49:25.125Z,97603.84
2023-03-26T20:51:52.864Z,97600.28
2023-03-26T20:54:25.333Z,97599.44
2023-03-26T20:56:54.838Z,97608.09
2023-03-26T20:59:27.798Z,97604.06
2023-03-26T21:01:59.556Z,97610.28
2023-03-26T21:04:28.043Z,97610.97
2023-03-26T21:07:06.952Z,97608.81
2023-03-26T21:09:39.535Z,97612.16
2023-03-26T21:12:33.541Z,97623.63
2023-03-26T21:15:03.290Z,97620.47
2023-03-26T21:17:33.271Z,97631.81
2023-03-26T21:20:10.819Z,97632.75
2023-03-26T21:23:45.284Z,97616.34
2023-03-26T21:26:53.234Z,97625.28
2023-03-26T21:29:21.210Z,97633.06
2023-03-26T21:31:50.408Z,97633.19
2023-03-26T21:34:20.105Z,97636.19
2023-03-26T21:36:48.327Z,97638.16
2023-03-26T21:39:16.574Z,97629.56
